Aviation Digital Data Service (ADDS)

Output produced by METARs form (0958 UTC 12 December 2017)
found at http://www.aviationweather.gov/adds/metars/
 
METAR text: KDTL 120955Z AUTO 00000KT 10SM OVC014 M13/M15 A3021 RMK AO2
Conditions at: KDTL (DETROIT LAKES , MN, US) observed 0955 UTC 12 December 2017
Temperature: -13.0°C (9°F)
Dewpoint: -15.0°C (5°F) [RH = 85%]
Pressure (altimeter): 30.21 inches Hg (1023.1 mb)
Winds: calm
Visibility: 10 or more miles (16+ km)
Ceiling: 1400 feet AGL
Clouds: overcast cloud deck at 1400 feet AGL
Weather: automated observation with no human augmentation;
there may or may not be significant weather present at this time